Time;durP1;ratioP1;P1;durP2;ratioP2;P2;SDS_P1;SDS_P2;PMS_P1;PMS_P2;Temp;Humidity;BMP_temperature;BMP_pressure;BME280_temperature;BME280_humidity;BME280_pressure;Samples;Min_cycle;Max_cycle;Signal;HPM_P1;HPM_P2
2024/04/06 00:00:23;;;;;;;2.90;1.57;;;;;;;;;;6197272;22;20231;-92
2024/04/06 00:02:49;;;;;;;6.90;1.63;;;;;;;;;;6221564;22;20211;-93
2024/04/06 00:05:18;;;;;;;7.77;1.50;;;;;;;;;;6222822;22;20232;-93
2024/04/06 00:07:45;;;;;;;0.97;0.70;;;;;;;;;;6198293;22;20194;-93
2024/04/06 00:10:12;;;;;;;2.93;0.73;;;;;;;;;;6247487;22;20333;-93
2024/04/06 00:12:38;;;;;;;2.43;1.30;;;;;;;;;;6197087;22;20201;-93
2024/04/06 00:15:04;;;;;;;2.17;0.73;;;;;;;;;;6140688;23;20215;-93
2024/04/06 00:17:32;;;;;;;0.57;0.37;;;;;;;;;;6095873;23;20305;-93
2024/04/06 00:19:58;;;;;;;0.97;0.97;;;;;;;;;;6119782;23;20175;-92
2024/04/06 00:22:24;;;;;;;2.87;1.00;;;;;;;;;;6181644;23;20673;-93
2024/04/06 00:24:51;;;;;;;5.33;1.13;;;;;;;;;;6131288;23;20210;-93
2024/04/06 00:27:17;;;;;;;5.83;2.07;;;;;;;;;;6107466;23;20868;-93
2024/04/06 00:29:43;;;;;;;5.23;0.60;;;;;;;;;;6072670;23;20657;-92
2024/04/06 00:32:09;;;;;;;0.90;0.80;;;;;;;;;;6073105;23;20286;-92
2024/04/06 00:34:35;;;;;;;1.10;1.10;;;;;;;;;;6073666;23;20176;-93
2024/04/06 00:37:02;;;;;;;4.67;0.63;;;;;;;;;;6057677;23;21147;-92
2024/04/06 00:39:28;;;;;;;0.67;0.67;;;;;;;;;;6009745;23;20655;-92
2024/04/06 00:41:55;;;;;;;1.90;0.57;;;;;;;;;;6009037;23;20209;-93
2024/04/06 00:44:24;;;;;;;3.80;0.93;;;;;;;;;;6009790;23;20671;-92
2024/04/06 00:46:53;;;;;;;1.13;0.40;;;;;;;;;;6057864;23;20168;-93
2024/04/06 00:49:20;;;;;;;4.33;1.90;;;;;;;;;;6092006;23;20199;-93
2024/04/06 00:51:46;;;;;;;1.17;1.07;;;;;;;;;;6020187;23;20212;-93
2024/04/06 00:54:12;;;;;;;0.87;0.60;;;;;;;;;;6091304;23;20212;-93
2024/04/06 00:56:39;;;;;;;2.77;0.63;;;;;;;;;;6091249;23;20218;-93
2024/04/06 00:59:05;;;;;;;0.63;0.53;;;;;;;;;;6120455;23;21012;-93
2024/04/06 01:01:31;;;;;;;6.27;1.50;;;;;;;;;;6131776;23;20202;-93
2024/04/06 01:03:58;;;;;;;1.33;0.30;;;;;;;;;;6130796;23;20660;-91
2024/04/06 01:06:25;;;;;;;1.00;0.90;;;;;;;;;;6130308;23;20206;-93
2024/04/06 01:08:53;;;;;;;12.17;0.70;;;;;;;;;;6104969;23;20568;-93
2024/04/06 01:11:22;;;;;;;0.80;0.80;;;;;;;;;;6182626;22;20196;-93
2024/04/06 01:13:48;;;;;;;4.00;2.20;;;;;;;;;;6198406;22;20318;-93
2024/04/06 01:16:14;;;;;;;0.80;0.80;;;;;;;;;;6221802;22;20527;-93
2024/04/06 01:18:41;;;;;;;2.23;1.30;;;;;;;;;;6246922;22;20207;-93
2024/04/06 01:21:07;;;;;;;9.73;2.10;;;;;;;;;;6220771;22;20231;-93
2024/04/06 01:23:34;;;;;;;4.17;0.87;;;;;;;;;;6196106;22;20204;-92
2024/04/06 01:26:01;;;;;;;4.77;1.20;;;;;;;;;;6220671;22;20207;-93
2024/04/06 01:28:28;;;;;;;0.80;0.80;;;;;;;;;;6221809;22;20235;-93
2024/04/06 01:30:54;;;;;;;1.20;1.13;;;;;;;;;;6220606;22;20208;-93
2024/04/06 01:33:23;;;;;;;8.90;2.23;;;;;;;;;;6189780;23;20213;-93
2024/04/06 01:35:50;;;;;;;1.23;1.13;;;;;;;;;;6226982;22;20307;-93
2024/04/06 01:38:16;;;;;;;2.70;0.93;;;;;;;;;;6195461;22;20208;-93
2024/04/06 01:40:42;;;;;;;1.50;1.40;;;;;;;;;;6197062;22;20177;-93
2024/04/06 01:43:08;;;;;;;0.87;0.87;;;;;;;;;;6196427;22;20262;-92
2024/04/06 01:45:35;;;;;;;0.73;0.73;;;;;;;;;;6196161;22;20200;-92
2024/04/06 01:48:01;;;;;;;4.90;0.80;;;;;;;;;;6195822;22;20200;-93
2024/04/06 01:50:27;;;;;;;2.47;2.37;;;;;;;;;;6179225;23;20226;-93
2024/04/06 01:52:54;;;;;;;1.20;1.10;;;;;;;;;;6155556;23;20179;-92
2024/04/06 01:55:20;;;;;;;3.73;1.73;;;;;;;;;;6132427;23;20682;-92
2024/04/06 01:57:46;;;;;;;0.93;0.80;;;;;;;;;;6097255;23;20211;-92
2024/04/06 02:00:13;;;;;;;2.57;2.47;;;;;;;;;;6097796;23;20375;-92
2024/04/06 02:02:41;;;;;;;4.43;1.10;;;;;;;;;;6097676;23;20231;-92
2024/04/06 02:05:07;;;;;;;0.73;0.73;;;;;;;;;;6097248;23;20179;-93
2024/04/06 02:07:33;;;;;;;0.87;0.87;;;;;;;;;;6098309;23;20176;-92
2024/04/06 02:09:59;;;;;;;1.37;0.83;;;;;;;;;;6096573;23;20270;-92
2024/04/06 02:12:27;;;;;;;0.67;0.67;;;;;;;;;;6096977;23;20295;-92
2024/04/06 02:14:53;;;;;;;1.00;0.73;;;;;;;;;;6072592;23;20220;-93
2024/04/06 02:17:19;;;;;;;2.47;0.97;;;;;;;;;;6073105;23;20204;-92
2024/04/06 02:19:45;;;;;;;4.30;1.50;;;;;;;;;;6097829;23;20172;-93
2024/04/06 02:22:14;;;;;;;6.67;2.40;;;;;;;;;;6137265;23;20216;-93
2024/04/06 02:24:40;;;;;;;15.73;1.77;;;;;;;;;;6160181;23;20201;-93
2024/04/06 02:27:07;;;;;;;1.00;0.90;;;;;;;;;;6135999;23;20214;-93
2024/04/06 02:29:34;;;;;;;1.33;1.23;;;;;;;;;;6187830;22;20208;-92
2024/04/06 02:32:01;;;;;;;2.33;2.10;;;;;;;;;;6198553;22;20164;-93
2024/04/06 02:34:27;;;;;;;0.73;0.63;;;;;;;;;;6198458;22;20172;-93
2024/04/06 02:36:53;;;;;;;2.60;2.40;;;;;;;;;;6197094;22;20239;-92
2024/04/06 02:39:19;;;;;;;0.63;0.63;;;;;;;;;;6197818;22;20215;-93
2024/04/06 02:41:45;;;;;;;1.70;1.13;;;;;;;;;;6198552;22;20234;-93
2024/04/06 02:44:11;;;;;;;2.93;1.43;;;;;;;;;;6197758;22;20172;-93
2024/04/06 02:46:37;;;;;;;3.67;0.97;;;;;;;;;;6198425;22;20192;-93
2024/04/06 02:49:04;;;;;;;1.17;1.00;;;;;;;;;;6197676;22;20220;-93
2024/04/06 02:51:33;;;;;;;0.73;0.73;;;;;;;;;;6198853;22;20205;-93
2024/04/06 02:54:00;;;;;;;2.30;0.77;;;;;;;;;;6222668;22;20531;-93
2024/04/06 02:56:26;;;;;;;5.70;2.27;;;;;;;;;;6197425;22;20276;-93
2024/04/06 02:58:52;;;;;;;1.70;0.90;;;;;;;;;;6197912;22;20251;-94
2024/04/06 03:01:18;;;;;;;3.50;1.67;;;;;;;;;;6222255;22;20223;-93
2024/04/06 03:03:44;;;;;;;1.23;1.13;;;;;;;;;;6232600;22;20255;-93
2024/04/06 03:06:10;;;;;;;1.10;1.00;;;;;;;;;;6230532;23;20216;-93
2024/04/06 03:08:37;;;;;;;23.77;2.50;;;;;;;;;;6191455;23;20201;-93
2024/04/06 03:11:03;;;;;;;1.23;1.03;;;;;;;;;;6166952;23;20173;-94
2024/04/06 03:13:29;;;;;;;0.83;0.83;;;;;;;;;;6191516;23;20180;-93
2024/04/06 03:15:55;;;;;;;0.70;0.63;;;;;;;;;;6191492;23;20220;-93
2024/04/06 03:18:21;;;;;;;1.00;0.93;;;;;;;;;;6167188;23;20232;-94
2024/04/06 03:20:47;;;;;;;3.60;1.60;;;;;;;;;;6167251;23;20283;-93
2024/04/06 03:23:13;;;;;;;2.23;2.00;;;;;;;;;;6167711;23;20529;-93
2024/04/06 03:25:44;;;;;;;3.10;1.47;;;;;;;;;;6193051;23;20173;-93
2024/04/06 03:28:10;;;;;;;5.87;1.23;;;;;;;;;;6192042;23;20428;-93
2024/04/06 03:30:36;;;;;;;2.90;1.13;;;;;;;;;;6192778;23;20921;-93
2024/04/06 03:33:03;;;;;;;1.47;1.03;;;;;;;;;;6167426;23;20284;-93
2024/04/06 03:35:29;;;;;;;1.70;1.10;;;;;;;;;;6167518;23;20213;-92
2024/04/06 03:37:55;;;;;;;1.17;1.10;;;;;;;;;;6166884;23;20204;-93
2024/04/06 03:40:24;;;;;;;1.70;1.60;;;;;;;;;;6193437;23;20173;-93
2024/04/06 03:42:57;;;;;;;1.77;1.63;;;;;;;;;;6166908;23;20209;-94
2024/04/06 03:45:23;;;;;;;1.40;1.23;;;;;;;;;;6191604;23;20209;-93
2024/04/06 03:47:50;;;;;;;5.03;2.70;;;;;;;;;;6191395;23;20200;-93
2024/04/06 03:50:17;;;;;;;1.30;1.20;;;;;;;;;;6167206;23;20197;-93
2024/04/06 03:52:46;;;;;;;8.47;2.60;;;;;;;;;;6167686;23;20177;-93
2024/04/06 03:55:12;;;;;;;1.10;1.00;;;;;;;;;;6167345;23;20266;-93
2024/04/06 03:57:38;;;;;;;1.30;1.20;;;;;;;;;;6167150;23;20205;-93
2024/04/06 04:00:08;;;;;;;12.63;1.70;;;;;;;;;;6155129;23;20213;-93
2024/04/06 04:02:41;;;;;;;1.00;0.93;;;;;;;;;;6102256;23;20204;-93
2024/04/06 04:05:08;;;;;;;3.37;1.20;;;;;;;;;;6128979;23;20190;-93
2024/04/06 04:07:35;;;;;;;2.63;1.60;;;;;;;;;;6107348;23;20202;-93
2024/04/06 04:10:02;;;;;;;1.57;1.47;;;;;;;;;;6106648;23;20210;-93
2024/04/06 04:12:29;;;;;;;1.13;1.13;;;;;;;;;;6154387;23;20268;-93
2024/04/06 04:14:59;;;;;;;7.40;2.10;;;;;;;;;;6155171;23;20571;-93
2024/04/06 04:17:25;;;;;;;1.20;1.10;;;;;;;;;;6106946;23;20306;-93
2024/04/06 04:19:51;;;;;;;2.30;1.10;;;;;;;;;;6107073;23;20210;-93
2024/04/06 04:22:17;;;;;;;7.43;1.40;;;;;;;;;;6106655;23;20285;-92
2024/04/06 04:24:43;;;;;;;3.87;2.30;;;;;;;;;;6044067;23;20232;-93
2024/04/06 04:27:09;;;;;;;2.20;1.40;;;;;;;;;;6067173;23;21004;-93
2024/04/06 04:29:36;;;;;;;4.30;1.67;;;;;;;;;;6068160;23;20228;-93
2024/04/06 04:32:03;;;;;;;5.20;1.67;;;;;;;;;;6043964;23;20172;-93
2024/04/06 04:34:29;;;;;;;5.53;1.60;;;;;;;;;;6095530;23;20176;-93
2024/04/06 04:36:56;;;;;;;2.07;1.33;;;;;;;;;;6126762;23;20246;-92
2024/04/06 04:39:22;;;;;;;3.57;1.60;;;;;;;;;;6130893;23;20237;-93
2024/04/06 04:41:48;;;;;;;2.40;0.83;;;;;;;;;;6105968;23;20202;-93
2024/04/06 04:44:14;;;;;;;8.43;2.23;;;;;;;;;;6106292;23;20202;-93
2024/04/06 04:46:40;;;;;;;2.43;1.70;;;;;;;;;;6107355;23;20170;-93
2024/04/06 04:49:07;;;;;;;5.83;1.60;;;;;;;;;;6106108;23;20198;-93
2024/04/06 04:51:38;;;;;;;3.17;2.33;;;;;;;;;;6107768;23;20300;-93
2024/04/06 04:54:04;;;;;;;2.27;1.70;;;;;;;;;;6089234;23;20203;-93
2024/04/06 04:56:31;;;;;;;1.83;1.73;;;;;;;;;;6091342;23;20214;-93
2024/04/06 04:59:00;;;;;;;3.90;2.37;;;;;;;;;;6110734;23;20166;-93
2024/04/06 05:01:26;;;;;;;1.97;1.57;;;;;;;;;;6145822;23;20227;-94
2024/04/06 05:03:52;;;;;;;1.83;1.40;;;;;;;;;;6216916;23;20209;-93
2024/04/06 05:06:21;;;;;;;2.60;1.50;;;;;;;;;;6192434;23;20201;-93
2024/04/06 05:08:52;;;;;;;2.67;2.27;;;;;;;;;;6216526;23;20292;-93
2024/04/06 05:11:18;;;;;;;3.07;2.53;;;;;;;;;;6216973;23;20573;-93
2024/04/06 05:13:44;;;;;;;4.63;1.80;;;;;;;;;;6192823;23;20173;-93
2024/04/06 05:16:10;;;;;;;2.70;1.73;;;;;;;;;;6192119;23;20216;-93
2024/04/06 05:18:37;;;;;;;1.10;0.73;;;;;;;;;;6217307;23;20229;-94
2024/04/06 05:21:03;;;;;;;3.37;2.67;;;;;;;;;;6190820;23;20215;-92
2024/04/06 05:23:30;;;;;;;4.57;1.43;;;;;;;;;;6191394;23;20225;-92
2024/04/06 05:25:56;;;;;;;5.00;1.63;;;;;;;;;;6191452;23;20174;-93
2024/04/06 05:28:23;;;;;;;2.63;2.37;;;;;;;;;;6218932;22;20216;-93
2024/04/06 05:30:49;;;;;;;2.70;1.20;;;;;;;;;;6219901;22;20200;-92
2024/04/06 05:33:17;;;;;;;7.37;2.50;;;;;;;;;;6195730;22;20224;-94
2024/04/06 05:35:44;;;;;;;2.00;1.57;;;;;;;;;;6220310;22;20258;-93
2024/04/06 05:38:11;;;;;;;5.57;1.57;;;;;;;;;;6196458;22;20168;-93
2024/04/06 05:40:41;;;;;;;7.90;2.03;;;;;;;;;;6222215;22;20602;-93
2024/04/06 05:43:08;;;;;;;4.20;2.80;;;;;;;;;;6221797;22;20295;-93
2024/04/06 05:45:36;;;;;;;3.87;3.33;;;;;;;;;;6220853;22;20211;-93
2024/04/06 05:48:05;;;;;;;4.43;2.20;;;;;;;;;;6220622;22;20224;-93
2024/04/06 05:50:37;;;;;;;6.37;3.00;;;;;;;;;;6222196;22;20201;-94
2024/04/06 05:53:41;;;;;;;6.20;2.80;;;;;;;;;;6205356;22;20230;-93
2024/04/06 05:56:12;;;;;;;4.10;2.20;;;;;;;;;;6193230;22;20231;-94
2024/04/06 05:59:19;;;;;;;6.90;2.77;;;;;;;;;;6222530;22;20197;-93
2024/04/06 06:01:48;;;;;;;5.67;2.20;;;;;;;;;;6220686;22;20553;-93
2024/04/06 06:07:25;;;;;;;2.43;2.23;;;;;;;;;;6183505;22;20192;-93
2024/04/06 06:09:51;;;;;;;2.20;1.00;;;;;;;;;;6176505;23;20209;-94
2024/04/06 06:12:19;;;;;;;1.87;1.73;;;;;;;;;;6168992;23;20209;-93
2024/04/06 06:14:45;;;;;;;4.33;3.23;;;;;;;;;;6175121;23;20205;-92
2024/04/06 06:17:11;;;;;;;2.37;1.23;;;;;;;;;;6155084;23;20257;-92
2024/04/06 06:19:38;;;;;;;3.00;2.53;;;;;;;;;;6106936;23;20202;-92
2024/04/06 06:22:04;;;;;;;5.53;2.43;;;;;;;;;;6132384;23;20297;-93
2024/04/06 06:24:30;;;;;;;1.90;1.70;;;;;;;;;;6184975;23;20202;-93
2024/04/06 06:26:59;;;;;;;3.50;2.87;;;;;;;;;;6136069;23;20210;-92
2024/04/06 06:29:25;;;;;;;5.63;3.50;;;;;;;;;;6185175;23;20257;-91
2024/04/06 06:31:52;;;;;;;5.80;2.83;;;;;;;;;;6136705;23;20228;-93
2024/04/06 06:34:20;;;;;;;3.60;2.67;;;;;;;;;;6159374;23;20675;-92
2024/04/06 06:36:52;;;;;;;3.33;3.00;;;;;;;;;;6131603;23;20743;-91
2024/04/06 06:39:18;;;;;;;2.00;1.90;;;;;;;;;;6186391;23;20211;-93
2024/04/06 06:41:44;;;;;;;2.63;2.17;;;;;;;;;;6137808;23;20209;-91
2024/04/06 06:44:10;;;;;;;6.93;2.27;;;;;;;;;;6140373;23;20174;-94
2024/04/06 06:46:36;;;;;;;2.80;2.57;;;;;;;;;;6138836;23;20174;-93
2024/04/06 06:49:03;;;;;;;1.33;1.23;;;;;;;;;;6189505;22;20207;-93
2024/04/06 06:51:29;;;;;;;2.40;1.70;;;;;;;;;;6223704;22;20196;-95
2024/04/06 06:53:55;;;;;;;5.03;2.00;;;;;;;;;;6222808;22;20653;-94
2024/04/06 06:56:24;;;;;;;4.77;2.93;;;;;;;;;;6223907;22;20278;-94
2024/04/06 06:58:50;;;;;;;4.03;3.70;;;;;;;;;;6224794;22;20835;-94
2024/04/06 07:01:20;;;;;;;3.27;1.77;;;;;;;;;;6199369;22;20242;-94
2024/04/06 07:03:48;;;;;;;3.37;2.37;;;;;;;;;;6175761;23;20274;-95
2024/04/06 07:06:15;;;;;;;1.60;1.43;;;;;;;;;;6191304;23;20209;-93
2024/04/06 07:08:41;;;;;;;3.40;3.13;;;;;;;;;;6194463;23;20216;-93
2024/04/06 07:11:26;;;;;;;2.10;1.90;;;;;;;;;;6193096;23;20173;-95
2024/04/06 07:14:02;;;;;;;1.97;1.67;;;;;;;;;;6193862;23;20156;-93
2024/04/06 07:16:28;;;;;;;0.83;0.83;;;;;;;;;;6200656;22;20223;-94
2024/04/06 07:18:55;;;;;;;2.67;1.53;;;;;;;;;;6223453;22;20975;-94
2024/04/06 07:21:31;;;;;;;1.90;1.67;;;;;;;;;;6230086;22;20212;-94
2024/04/06 07:23:57;;;;;;;3.03;2.03;;;;;;;;;;6228669;22;20231;-95
2024/04/06 07:26:24;;;;;;;2.60;1.80;;;;;;;;;;6199548;22;20267;-95
2024/04/06 07:28:51;;;;;;;2.60;2.03;;;;;;;;;;6203353;22;20222;-95
2024/04/06 07:31:18;;;;;;;2.73;2.20;;;;;;;;;;6229268;22;20211;-96
2024/04/06 07:33:46;;;;;;;2.87;1.60;;;;;;;;;;6189204;23;20205;-94
2024/04/06 07:36:12;;;;;;;4.07;0.93;;;;;;;;;;6230167;22;20223;-95
2024/04/06 07:38:39;;;;;;;1.53;1.40;;;;;;;;;;6202623;22;20200;-95
2024/04/06 07:41:08;;;;;;;3.53;2.00;;;;;;;;;;6201536;22;20259;-96
2024/04/06 07:43:39;;;;;;;1.57;1.47;;;;;;;;;;6203316;22;20621;-95
2024/04/06 07:46:05;;;;;;;1.10;1.07;;;;;;;;;;6225072;22;20589;-95
2024/04/06 07:48:31;;;;;;;6.17;1.30;;;;;;;;;;6223914;22;20230;-94
2024/04/06 07:51:03;;;;;;;1.43;1.33;;;;;;;;;;6200355;22;20211;-95
2024/04/06 07:53:29;;;;;;;5.20;2.33;;;;;;;;;;6201511;22;20196;-94
2024/04/06 07:55:58;;;;;;;2.60;1.63;;;;;;;;;;6225062;22;20196;-95
2024/04/06 07:58:25;;;;;;;1.50;1.40;;;;;;;;;;6201505;22;20640;-94
2024/04/06 08:00:51;;;;;;;1.60;1.50;;;;;;;;;;6200268;22;20703;-95
2024/04/06 08:03:17;;;;;;;3.63;2.10;;;;;;;;;;6229992;22;20201;-94
2024/04/06 08:05:43;;;;;;;1.50;1.40;;;;;;;;;;6196667;22;20204;-93
2024/04/06 08:08:13;;;;;;;1.93;1.53;;;;;;;;;;6225487;22;20183;-93
2024/04/06 08:10:42;;;;;;;1.63;1.30;;;;;;;;;;6198715;22;20165;-93
2024/04/06 08:13:08;;;;;;;1.10;1.10;;;;;;;;;;6198802;22;20231;-91
2024/04/06 08:15:40;;;;;;;1.30;1.20;;;;;;;;;;6223740;22;20208;-93
2024/04/06 08:18:15;;;;;;;0.87;0.83;;;;;;;;;;6199496;22;20200;-96
2024/04/06 08:20:47;;;;;;;3.33;1.03;;;;;;;;;;6222821;22;20679;-93
2024/04/06 08:23:16;;;;;;;4.30;1.27;;;;;;;;;;6197501;22;20248;-93
2024/04/06 08:25:42;;;;;;;2.17;1.43;;;;;;;;;;6221523;22;20180;-92
2024/04/06 08:28:09;;;;;;;3.17;1.83;;;;;;;;;;6196086;22;20680;-92
2024/04/06 08:30:35;;;;;;;1.43;1.00;;;;;;;;;;6197281;22;20200;-93
2024/04/06 08:33:01;;;;;;;3.17;1.40;;;;;;;;;;6222624;22;20211;-92
2024/04/06 08:35:37;;;;;;;0.80;0.80;;;;;;;;;;6197897;22;20212;-94
2024/04/06 08:38:08;;;;;;;1.40;0.97;;;;;;;;;;6199936;22;20200;-96
2024/04/06 08:40:40;;;;;;;1.23;1.13;;;;;;;;;;6226290;22;20173;-94
2024/04/06 08:43:11;;;;;;;2.10;1.87;;;;;;;;;;6199622;22;20209;-96
2024/04/06 08:45:38;;;;;;;1.43;0.90;;;;;;;;;;6228945;22;20263;-96
2024/04/06 08:48:04;;;;;;;1.23;0.93;;;;;;;;;;6228263;22;20208;-94
2024/04/06 08:50:31;;;;;;;1.23;1.20;;;;;;;;;;6236257;22;20184;-95
2024/04/06 08:52:58;;;;;;;5.55;1.38;;;;;;;;;;6253226;22;20168;-93
2024/04/06 08:55:24;;;;;;;1.02;1.02;;;;;;;;;;6224108;22;20262;-93
2024/04/06 08:57:51;;;;;;;1.60;1.40;;;;;;;;;;6198477;22;20200;-93
2024/04/06 09:00:17;;;;;;;0.73;0.73;;;;;;;;;;6198918;22;20204;-93
2024/04/06 09:02:43;;;;;;;1.85;1.23;;;;;;;;;;6223263;22;20204;-93
2024/04/06 09:05:10;;;;;;;1.00;1.00;;;;;;;;;;6198362;22;20173;-91
2024/04/06 09:07:36;;;;;;;1.85;1.25;;;;;;;;;;6197140;22;20268;-91
2024/04/06 09:10:03;;;;;;;1.83;1.42;;;;;;;;;;6198818;22;20283;-92
2024/04/06 09:12:29;;;;;;;2.53;1.13;;;;;;;;;;6198630;22;20287;-93
2024/04/06 09:14:55;;;;;;;1.40;1.08;;;;;;;;;;6198971;22;20200;-93
2024/04/06 09:17:24;;;;;;;1.42;1.10;;;;;;;;;;6199696;22;20200;-95
2024/04/06 09:19:50;;;;;;;1.70;1.40;;;;;;;;;;6199695;22;20172;-93
2024/04/06 09:22:17;;;;;;;1.58;1.23;;;;;;;;;;6197775;22;20250;-93
2024/04/06 09:24:43;;;;;;;1.70;1.48;;;;;;;;;;6223737;22;20215;-92
2024/04/06 09:27:11;;;;;;;1.13;0.95;;;;;;;;;;6221043;22;20221;-92
2024/04/06 09:29:37;;;;;;;1.20;0.73;;;;;;;;;;6221375;22;20235;-92
2024/04/06 09:32:04;;;;;;;0.90;0.90;;;;;;;;;;6196008;22;20243;-93
2024/04/06 09:34:33;;;;;;;1.35;1.05;;;;;;;;;;6197080;22;20256;-93
2024/04/06 09:37:03;;;;;;;3.97;0.90;;;;;;;;;;6220793;22;20243;-93
2024/04/06 09:39:31;;;;;;;1.17;0.90;;;;;;;;;;6205479;22;20200;-93
2024/04/06 09:41:58;;;;;;;1.13;1.02;;;;;;;;;;6221319;22;20209;-93
2024/04/06 09:44:25;;;;;;;1.08;0.98;;;;;;;;;;6221443;22;20591;-94
2024/04/06 09:46:54;;;;;;;0.68;0.68;;;;;;;;;;6221564;22;20169;-92
2024/04/06 09:49:23;;;;;;;1.35;1.15;;;;;;;;;;6222160;22;20203;-92
2024/04/06 09:51:50;;;;;;;4.72;1.20;;;;;;;;;;6196508;22;20650;-91
2024/04/06 09:54:27;;;;;;;1.63;1.52;;;;;;;;;;6223645;22;20226;-92
2024/04/06 09:56:53;;;;;;;0.80;0.80;;;;;;;;;;6161111;23;20760;-92
2024/04/06 09:59:28;;;;;;;0.85;0.85;;;;;;;;;;6160662;23;20205;-93
2024/04/06 10:01:54;;;;;;;1.05;0.90;;;;;;;;;;6186115;23;20677;-93
2024/04/06 10:04:35;;;;;;;1.25;1.00;;;;;;;;;;6160672;23;20165;-92
2024/04/06 10:07:02;;;;;;;0.80;0.77;;;;;;;;;;6185824;23;20257;-92
2024/04/06 10:09:37;;;;;;;1.48;1.00;;;;;;;;;;6161011;23;20209;-94
2024/04/06 10:12:04;;;;;;;1.10;1.00;;;;;;;;;;6185682;23;20307;-93
2024/04/06 10:14:30;;;;;;;1.08;1.08;;;;;;;;;;6185456;23;20202;-93
2024/04/06 10:17:09;;;;;;;1.13;1.02;;;;;;;;;;6186760;23;20293;-92
2024/04/06 10:19:35;;;;;;;3.47;1.00;;;;;;;;;;6162699;23;20638;-92
2024/04/06 10:22:03;;;;;;;2.28;1.00;;;;;;;;;;6161653;23;20286;-91
2024/04/06 10:24:30;;;;;;;0.80;0.80;;;;;;;;;;6186354;23;20663;-91
2024/04/06 10:26:59;;;;;;;2.10;0.93;;;;;;;;;;6193454;22;20213;-91
2024/04/06 10:29:29;;;;;;;1.38;1.27;;;;;;;;;;6200271;22;20668;-92
2024/04/06 10:31:55;;;;;;;1.27;1.17;;;;;;;;;;6197827;22;20172;-91
2024/04/06 10:34:21;;;;;;;1.65;1.48;;;;;;;;;;6223562;22;20168;-91
2024/04/06 10:36:54;;;;;;;0.90;0.90;;;;;;;;;;6199095;22;20240;-91
2024/04/06 10:39:20;;;;;;;0.98;0.98;;;;;;;;;;6159246;23;20210;-91
2024/04/06 10:41:46;;;;;;;1.45;1.30;;;;;;;;;;6182829;23;20214;-92
2024/04/06 10:44:12;;;;;;;1.08;0.88;;;;;;;;;;6182159;23;20319;-91
2024/04/06 10:46:39;;;;;;;1.27;1.10;;;;;;;;;;6132397;23;20297;-91
2024/04/06 10:49:11;;;;;;;1.30;1.10;;;;;;;;;;6181670;23;20217;-92
2024/04/06 10:51:37;;;;;;;2.33;1.00;;;;;;;;;;6182536;23;20352;-92
2024/04/06 10:54:11;;;;;;;1.20;1.10;;;;;;;;;;6181856;23;20648;-92
2024/04/06 10:56:37;;;;;;;1.83;1.27;;;;;;;;;;6180527;23;20210;-92
2024/04/06 10:59:04;;;;;;;1.67;1.15;;;;;;;;;;6181960;23;20242;-92
2024/04/06 11:01:39;;;;;;;2.45;1.10;;;;;;;;;;6132424;23;20636;-92
2024/04/06 11:04:09;;;;;;;1.58;0.93;;;;;;;;;;6181930;23;20309;-93
2024/04/06 11:06:35;;;;;;;1.23;1.05;;;;;;;;;;6181012;23;20210;-92
2024/04/06 11:09:10;;;;;;;1.63;1.52;;;;;;;;;;6180548;23;20238;-92
2024/04/06 11:11:36;;;;;;;1.45;1.05;;;;;;;;;;6222474;22;20267;-92
2024/04/06 11:14:02;;;;;;;0.80;0.80;;;;;;;;;;6221960;22;20203;-92
2024/04/06 11:16:32;;;;;;;1.00;0.98;;;;;;;;;;6222339;22;20254;-92
2024/04/06 11:18:58;;;;;;;1.65;0.98;;;;;;;;;;6196721;22;20250;-91
2024/04/06 11:21:24;;;;;;;1.80;1.38;;;;;;;;;;6221789;22;20196;-91
2024/04/06 11:23:51;;;;;;;1.90;1.15;;;;;;;;;;6221629;22;20200;-93
2024/04/06 11:26:21;;;;;;;3.38;1.70;;;;;;;;;;6196690;22;20553;-94
2024/04/06 11:28:47;;;;;;;2.13;1.00;;;;;;;;;;6222403;22;20165;-93
2024/04/06 11:31:16;;;;;;;1.30;1.20;;;;;;;;;;6221846;22;20201;-93
2024/04/06 11:33:43;;;;;;;3.00;1.27;;;;;;;;;;6197457;22;20291;-93
2024/04/06 11:36:14;;;;;;;0.90;0.90;;;;;;;;;;6197541;22;20216;-93
2024/04/06 11:38:40;;;;;;;1.20;1.20;;;;;;;;;;6197850;22;20223;-93
2024/04/06 11:41:09;;;;;;;1.25;0.95;;;;;;;;;;6160696;23;20178;-93
2024/04/06 11:43:35;;;;;;;2.00;1.30;;;;;;;;;;6161797;23;20175;-93
2024/04/06 11:46:05;;;;;;;1.75;1.40;;;;;;;;;;6143913;23;20206;-93
2024/04/06 11:48:31;;;;;;;1.25;1.15;;;;;;;;;;6159431;23;20202;-92
2024/04/06 11:50:58;;;;;;;1.67;1.20;;;;;;;;;;6185088;23;20213;-92
2024/04/06 11:53:24;;;;;;;1.90;1.20;;;;;;;;;;6185017;23;20213;-93
2024/04/06 11:55:50;;;;;;;1.60;1.00;;;;;;;;;;6161583;23;20194;-93
2024/04/06 11:58:16;;;;;;;3.97;1.40;;;;;;;;;;6185210;23;20189;-93
2024/04/06 12:00:43;;;;;;;2.95;1.10;;;;;;;;;;6185360;23;20590;-92
2024/04/06 12:03:15;;;;;;;2.22;1.20;;;;;;;;;;6160217;23;20964;-91
2024/04/06 12:05:41;;;;;;;1.48;1.10;;;;;;;;;;6159953;23;20228;-92
2024/04/06 12:08:07;;;;;;;1.38;1.27;;;;;;;;;;6160680;23;20170;-92
2024/04/06 12:10:36;;;;;;;1.80;1.27;;;;;;;;;;6160997;23;20176;-92
2024/04/06 12:13:02;;;;;;;2.47;1.17;;;;;;;;;;6218302;22;20268;-92
2024/04/06 12:15:28;;;;;;;2.85;1.30;;;;;;;;;;6196332;22;20711;-92
2024/04/06 12:17:57;;;;;;;1.50;1.40;;;;;;;;;;6221366;22;20200;-92
2024/04/06 12:20:24;;;;;;;2.15;1.00;;;;;;;;;;6220427;22;20224;-92
2024/04/06 12:22:51;;;;;;;1.58;0.95;;;;;;;;;;6196801;22;20181;-92
2024/04/06 12:25:18;;;;;;;1.08;1.00;;;;;;;;;;6221017;22;20204;-92
2024/04/06 12:27:44;;;;;;;1.02;0.93;;;;;;;;;;6195738;22;20225;-91
2024/04/06 12:30:14;;;;;;;1.17;1.08;;;;;;;;;;6195712;22;20519;-91
2024/04/06 12:32:40;;;;;;;6.55;1.00;;;;;;;;;;6244877;22;20725;-91
2024/04/06 12:35:07;;;;;;;1.20;1.10;;;;;;;;;;6220505;22;20176;-92
2024/04/06 12:37:33;;;;;;;1.10;1.00;;;;;;;;;;6197420;22;20195;-91
2024/04/06 12:40:03;;;;;;;2.45;1.45;;;;;;;;;;6220402;22;20283;-92
2024/04/06 12:42:29;;;;;;;1.45;1.13;;;;;;;;;;6195858;22;20269;-90
2024/04/06 12:44:56;;;;;;;1.35;1.25;;;;;;;;;;6195065;22;20236;-90
2024/04/06 12:47:26;;;;;;;0.70;0.70;;;;;;;;;;6219704;22;20503;-90
2024/04/06 12:49:52;;;;;;;2.22;1.60;;;;;;;;;;6220361;22;20231;-91
2024/04/06 12:52:18;;;;;;;5.15;1.73;;;;;;;;;;6220254;22;20239;-90
2024/04/06 12:54:44;;;;;;;4.32;1.52;;;;;;;;;;6220680;22;20211;-91
2024/04/06 12:59:55;;;;;;;3.50;1.92;;;;;;;;;;6246014;22;21055;-89
2024/04/06 13:02:21;;;;;;;1.73;1.45;;;;;;;;;;6195149;22;20204;-90
2024/04/06 13:04:47;;;;;;;2.92;1.55;;;;;;;;;;6195704;22;20173;-90
2024/04/06 13:07:13;;;;;;;2.30;1.40;;;;;;;;;;6195011;22;20214;-92
2024/04/06 13:09:40;;;;;;;1.42;1.27;;;;;;;;;;6219962;22;20204;-90
2024/04/06 13:12:09;;;;;;;1.80;1.23;;;;;;;;;;6195017;22;20235;-90
2024/04/06 13:14:35;;;;;;;1.67;1.58;;;;;;;;;;6219743;22;20204;-90
2024/04/06 13:17:01;;;;;;;1.67;1.08;;;;;;;;;;6193477;22;20228;-90
2024/04/06 13:19:30;;;;;;;3.00;1.80;;;;;;;;;;6196036;22;20168;-90
2024/04/06 13:21:56;;;;;;;1.63;1.10;;;;;;;;;;6194552;22;20215;-89
2024/04/06 13:24:22;;;;;;;2.55;1.25;;;;;;;;;;6219816;22;21078;-90
2024/04/06 13:26:49;;;;;;;2.10;1.17;;;;;;;;;;6194026;22;20626;-90
2024/04/06 13:29:16;;;;;;;1.10;1.00;;;;;;;;;;6195141;22;20243;-90
2024/04/06 13:31:43;;;;;;;1.33;1.20;;;;;;;;;;6196041;22;20606;-90
2024/04/06 13:34:11;;;;;;;2.65;1.27;;;;;;;;;;6195095;22;20204;-91
2024/04/06 13:36:38;;;;;;;3.17;1.05;;;;;;;;;;6159165;23;20217;-90
2024/04/06 13:39:06;;;;;;;1.40;1.10;;;;;;;;;;6159229;23;20284;-89
2024/04/06 13:41:32;;;;;;;1.85;1.27;;;;;;;;;;6158667;23;20206;-90
2024/04/06 13:43:58;;;;;;;1.48;1.35;;;;;;;;;;6158924;23;20188;-93
2024/04/06 13:46:24;;;;;;;1.40;1.20;;;;;;;;;;6158171;23;20205;-91
2024/04/06 13:48:51;;;;;;;1.15;1.05;;;;;;;;;;6185647;23;20236;-92
2024/04/06 13:51:20;;;;;;;2.97;1.70;;;;;;;;;;6161967;23;20225;-92
2024/04/06 13:53:49;;;;;;;1.92;0.95;;;;;;;;;;6185668;23;20202;-93
2024/04/06 13:56:15;;;;;;;1.30;1.20;;;;;;;;;;6161817;23;20213;-92
2024/04/06 13:58:44;;;;;;;2.05;1.20;;;;;;;;;;6162428;23;20263;-92
2024/04/06 14:01:13;;;;;;;2.42;1.23;;;;;;;;;;6161875;23;20212;-92
2024/04/06 14:03:42;;;;;;;1.23;1.20;;;;;;;;;;6162018;23;20226;-93
2024/04/06 14:06:11;;;;;;;1.17;0.98;;;;;;;;;;6186333;23;20210;-91
2024/04/06 14:08:37;;;;;;;0.93;0.93;;;;;;;;;;6195346;22;20208;-91
2024/04/06 14:11:03;;;;;;;1.77;0.90;;;;;;;;;;6197384;22;20176;-89
2024/04/06 14:13:32;;;;;;;1.25;1.15;;;;;;;;;;6198325;22;20580;-89
2024/04/06 14:15:58;;;;;;;0.90;0.80;;;;;;;;;;6209689;22;20220;-91
2024/04/06 14:18:24;;;;;;;0.90;0.90;;;;;;;;;;6197014;22;20279;-91
2024/04/06 14:20:53;;;;;;;1.50;1.25;;;;;;;;;;6197295;22;20225;-90
2024/04/06 14:23:19;;;;;;;1.95;0.90;;;;;;;;;;6197848;22;20271;-91
2024/04/06 14:25:48;;;;;;;1.15;1.05;;;;;;;;;;6198515;22;20253;-91
2024/04/06 14:28:14;;;;;;;1.88;1.60;;;;;;;;;;6221872;22;20680;-91
2024/04/06 14:30:40;;;;;;;1.33;1.20;;;;;;;;;;6196952;22;20204;-90
2024/04/06 14:33:09;;;;;;;0.52;0.50;;;;;;;;;;6197249;22;20208;-92
2024/04/06 14:35:35;;;;;;;2.58;0.80;;;;;;;;;;6198063;22;20212;-92
2024/04/06 14:38:01;;;;;;;1.17;1.10;;;;;;;;;;6197249;22;20602;-92
2024/04/06 14:40:27;;;;;;;0.90;0.90;;;;;;;;;;6224761;22;20610;-93
2024/04/06 14:42:53;;;;;;;2.40;1.52;;;;;;;;;;6198188;22;20203;-89
2024/04/06 14:45:32;;;;;;;1.85;0.95;;;;;;;;;;6198374;22;20258;-90
2024/04/06 14:47:58;;;;;;;2.25;1.08;;;;;;;;;;6222646;22;20235;-90
2024/04/06 14:50:24;;;;;;;1.38;0.90;;;;;;;;;;6197154;22;20280;-91